Time;durP1;ratioP1;P1;durP2;ratioP2;P2;SDS_P1;SDS_P2;PMS_P1;PMS_P2;Temp;Humidity;BMP_temperature;BMP_pressure;BME280_temperature;BME280_humidity;BME280_pressure;Samples;Min_cycle;Max_cycle;Signal;HPM_P1;HPM_P2
2024/01/12 00:00:32;;;;;;;13.60;5.40;;;4.20;99.90;;;;;;4990428;28;20046;-18
2024/01/12 00:02:57;;;;;;;12.00;5.13;;;4.20;99.90;;;;;;4993087;28;20366;-19
2024/01/12 00:05:23;;;;;;;13.43;6.23;;;4.20;99.90;;;;;;4988623;28;20040;-20
2024/01/12 00:07:49;;;;;;;13.85;5.90;;;4.20;99.90;;;;;;4991336;28;20053;-19
2024/01/12 00:10:15;;;;;;;12.27;5.57;;;3.90;99.90;;;;;;4989358;28;20042;-20
2024/01/12 00:12:40;;;;;;;11.90;5.80;;;4.10;99.90;;;;;;4994221;28;20049;-19
2024/01/12 00:15:06;;;;;;;12.60;6.00;;;4.10;99.90;;;;;;4992073;28;20392;-19
2024/01/12 00:17:32;;;;;;;12.27;5.00;;;4.20;99.90;;;;;;4991708;28;20239;-20
2024/01/12 00:19:58;;;;;;;10.65;4.97;;;4.10;99.90;;;;;;4994737;28;20030;-21
2024/01/12 00:22:24;;;;;;;13.07;5.30;;;4.20;99.90;;;;;;4972122;28;20083;-20
2024/01/12 00:24:50;;;;;;;14.50;6.25;;;4.20;99.90;;;;;;4952681;28;20042;-20
2024/01/12 00:27:16;;;;;;;14.00;5.72;;;4.20;99.90;;;;;;4974079;28;20042;-21
2024/01/12 00:29:41;;;;;;;12.40;5.63;;;4.20;99.90;;;;;;4953163;28;20047;-18
2024/01/12 00:32:07;;;;;;;10.77;5.07;;;4.20;99.90;;;;;;4970410;28;20043;-19
2024/01/12 00:34:33;;;;;;;14.97;5.50;;;4.20;99.90;;;;;;4965771;28;20061;-20
2024/01/12 00:37:00;;;;;;;14.13;5.70;;;3.60;99.90;;;;;;4974309;28;20035;-19
2024/01/12 00:39:26;;;;;;;14.88;6.25;;;4.20;99.90;;;;;;4956473;28;20043;-20
2024/01/12 00:41:52;;;;;;;12.65;5.68;;;4.20;99.90;;;;;;4973479;28;20037;-20
2024/01/12 00:44:18;;;;;;;11.50;5.40;;;4.20;99.90;;;;;;4971065;28;20066;-19
2024/01/12 00:46:50;;;;;;;13.40;5.55;;;4.20;99.90;;;;;;4972280;28;20082;-18
2024/01/12 00:49:19;;;;;;;13.32;6.25;;;4.20;99.90;;;;;;4968257;28;20049;-21
2024/01/12 00:51:45;;;;;;;11.25;5.05;;;4.20;99.90;;;;;;4972429;28;20353;-19
2024/01/12 00:54:11;;;;;;;11.93;5.25;;;4.20;99.90;;;;;;4971245;28;20231;-20
2024/01/12 00:56:37;;;;;;;12.30;6.13;;;4.20;99.90;;;;;;4955256;28;20057;-20
2024/01/12 00:59:03;;;;;;;14.13;5.82;;;4.20;99.90;;;;;;4969005;28;20106;-19
2024/01/12 01:01:29;;;;;;;12.90;5.97;;;4.20;99.90;;;;;;4969885;28;20338;-20
2024/01/12 01:03:55;;;;;;;13.10;6.18;;;4.20;99.90;;;;;;4967067;28;20351;-20
2024/01/12 01:06:21;;;;;;;13.00;6.03;;;4.20;99.90;;;;;;4972530;28;20042;-19
2024/01/12 01:08:48;;;;;;;13.48;6.07;;;4.20;99.90;;;;;;4972102;28;20050;-19
2024/01/12 01:11:14;;;;;;;13.80;5.83;;;4.20;99.90;;;;;;4974848;28;20026;-21
2024/01/12 01:13:41;;;;;;;14.73;5.95;;;4.20;99.90;;;;;;4972395;28;20029;-19
2024/01/12 01:16:07;;;;;;;12.27;5.50;;;4.20;99.90;;;;;;4971466;28;20035;-20
2024/01/12 01:18:32;;;;;;;12.20;5.10;;;4.20;99.90;;;;;;4974701;28;20353;-20
2024/01/12 01:20:59;;;;;;;11.60;5.37;;;4.20;99.90;;;;;;4963749;28;20027;-21
2024/01/12 01:23:24;;;;;;;13.48;6.07;;;4.20;99.90;;;;;;4971831;28;20042;-23
2024/01/12 01:25:50;;;;;;;12.50;5.80;;;4.30;99.90;;;;;;4976731;28;20094;-20
2024/01/12 01:28:16;;;;;;;14.52;5.97;;;4.20;99.90;;;;;;4967956;28;20055;-21
2024/01/12 01:30:42;;;;;;;12.57;5.68;;;4.20;99.90;;;;;;4974632;28;20045;-19
2024/01/12 01:33:08;;;;;;;14.00;6.30;;;4.20;99.90;;;;;;4975172;28;20053;-20
2024/01/12 01:35:34;;;;;;;13.67;6.67;;;4.20;99.90;;;;;;4973803;28;20351;-20
2024/01/12 01:38:00;;;;;;;13.23;5.93;;;4.20;99.90;;;;;;4969173;28;20272;-20
2024/01/12 01:40:26;;;;;;;12.70;6.00;;;4.20;99.90;;;;;;4976635;28;20041;-21
2024/01/12 01:42:52;;;;;;;12.87;5.17;;;4.20;99.90;;;;;;4989531;28;20057;-19
2024/01/12 01:45:18;;;;;;;13.55;5.65;;;4.20;99.90;;;;;;4973567;28;20339;-20
2024/01/12 01:47:45;;;;;;;14.30;6.43;;;4.20;99.90;;;;;;4973188;28;20098;-20
2024/01/12 01:50:13;;;;;;;15.05;6.40;;;4.20;99.90;;;;;;4974021;28;20049;-20
2024/01/12 01:52:40;;;;;;;15.60;6.47;;;4.20;99.90;;;;;;4970216;28;20023;-20
2024/01/12 01:55:07;;;;;;;13.23;6.47;;;4.20;99.90;;;;;;4970909;28;20042;-19
2024/01/12 01:57:34;;;;;;;12.65;5.80;;;4.20;99.90;;;;;;4972908;28;20306;-20
2024/01/12 01:59:59;;;;;;;15.35;5.82;;;4.20;99.90;;;;;;4957183;28;20122;-19
2024/01/12 02:02:26;;;;;;;13.90;6.00;;;4.20;99.90;;;;;;4971440;28;20082;-19
2024/01/12 02:04:53;;;;;;;15.20;6.60;;;4.20;99.90;;;;;;4972290;28;20452;-19
2024/01/12 02:07:19;;;;;;;12.10;5.90;;;4.20;99.90;;;;;;4973403;28;20337;-20
2024/01/12 02:09:45;;;;;;;14.73;6.35;;;4.20;99.90;;;;;;4974869;28;20026;-19
2024/01/12 02:12:10;;;;;;;13.00;6.07;;;4.20;99.90;;;;;;4971490;28;20051;-20
2024/01/12 02:14:36;;;;;;;13.93;5.90;;;4.20;99.90;;;;;;4972858;28;21627;-20
2024/01/12 02:17:02;;;;;;;13.80;6.18;;;4.20;99.90;;;;;;4973341;28;20058;-20
2024/01/12 02:19:28;;;;;;;15.77;5.90;;;4.20;99.90;;;;;;4971866;28;20030;-22
2024/01/12 02:21:54;;;;;;;12.55;5.93;;;4.20;99.90;;;;;;4974147;28;20074;-20
2024/01/12 02:24:19;;;;;;;12.50;6.18;;;4.20;99.90;;;;;;4969107;28;20038;-20
2024/01/12 02:26:45;;;;;;;14.57;6.27;;;4.20;99.90;;;;;;4971023;28;20166;-20
2024/01/12 02:29:12;;;;;;;14.45;6.28;;;4.20;99.90;;;;;;4985932;28;20058;-19
2024/01/12 02:31:39;;;;;;;11.85;5.75;;;4.30;99.90;;;;;;4973819;28;20383;-19
2024/01/12 02:34:04;;;;;;;14.47;5.90;;;4.20;99.90;;;;;;4972507;28;20027;-19
2024/01/12 02:36:30;;;;;;;14.20;6.30;;;4.20;99.90;;;;;;4957185;28;20151;-20
2024/01/12 02:38:56;;;;;;;12.97;6.17;;;4.20;99.90;;;;;;4974344;28;20038;-21
2024/01/12 02:41:22;;;;;;;11.47;5.83;;;4.20;99.90;;;;;;4968264;28;20270;-19
2024/01/12 02:43:48;;;;;;;14.88;5.93;;;4.20;99.90;;;;;;4966041;28;21862;-19
2024/01/12 02:46:14;;;;;;;12.70;5.70;;;4.20;99.90;;;;;;4970351;28;20109;-19
2024/01/12 02:48:39;;;;;;;12.68;6.10;;;4.20;99.90;;;;;;4970513;28;20059;-18
2024/01/12 02:51:06;;;;;;;12.18;5.63;;;4.20;99.90;;;;;;4968484;28;20110;-21
2024/01/12 02:53:32;;;;;;;13.33;6.00;;;4.20;99.90;;;;;;4970867;28;20046;-19
2024/01/12 02:55:58;;;;;;;13.00;5.78;;;4.20;99.90;;;;;;4972195;28;20255;-20
2024/01/12 02:58:24;;;;;;;12.57;5.75;;;4.20;99.90;;;;;;4969481;28;20035;-20
2024/01/12 03:00:52;;;;;;;15.73;5.82;;;4.00;99.90;;;;;;4974632;28;20042;-19
2024/01/12 03:03:18;;;;;;;13.27;5.77;;;4.20;99.90;;;;;;4972661;28;20046;-20
2024/01/12 03:05:44;;;;;;;13.95;6.00;;;4.20;99.90;;;;;;4972502;28;20528;-19
2024/01/12 03:08:10;;;;;;;14.70;6.55;;;4.20;99.90;;;;;;4951792;28;20039;-19
2024/01/12 03:10:36;;;;;;;12.43;6.15;;;4.20;99.90;;;;;;4970204;28;20034;-19
2024/01/12 03:13:02;;;;;;;12.60;6.07;;;4.20;99.90;;;;;;4968559;28;20117;-20
2024/01/12 03:15:28;;;;;;;11.45;5.88;;;4.20;99.90;;;;;;4972478;28;20522;-21
2024/01/12 03:17:56;;;;;;;14.53;5.83;;;4.20;99.90;;;;;;4970309;28;20023;-20
2024/01/12 03:20:21;;;;;;;12.82;5.72;;;4.20;99.90;;;;;;4976737;28;20038;-20
2024/01/12 03:22:47;;;;;;;12.90;5.78;;;4.20;99.90;;;;;;4988007;28;20092;-23
2024/01/12 03:25:13;;;;;;;12.43;5.53;;;4.20;99.90;;;;;;4968952;28;20062;-24
2024/01/12 03:27:39;;;;;;;14.70;6.13;;;4.20;99.90;;;;;;4992619;28;20070;-22
2024/01/12 03:30:05;;;;;;;12.67;5.57;;;4.20;99.90;;;;;;4992013;28;20038;-22
2024/01/12 03:32:30;;;;;;;13.77;6.13;;;4.20;99.90;;;;;;4989078;28;20265;-22
2024/01/12 03:34:56;;;;;;;11.10;5.13;;;4.20;99.90;;;;;;4974264;28;20076;-24
2024/01/12 03:37:22;;;;;;;11.90;4.77;;;4.20;99.90;;;;;;4980648;28;20037;-21
2024/01/12 03:39:48;;;;;;;10.57;4.90;;;4.20;99.90;;;;;;4991595;28;20026;-22
2024/01/12 03:42:14;;;;;;;11.53;4.67;;;4.30;99.90;;;;;;4984438;28;20046;-22
2024/01/12 03:44:39;;;;;;;11.25;4.80;;;4.30;99.90;;;;;;4991057;28;20077;-23
2024/01/12 03:47:05;;;;;;;9.80;4.60;;;4.30;99.90;;;;;;4988238;28;20038;-21
2024/01/12 03:49:31;;;;;;;10.35;4.80;;;4.40;99.90;;;;;;4989661;28;20031;-21
2024/01/12 03:51:57;;;;;;;10.73;4.53;;;4.40;99.90;;;;;;4969756;28;20137;-21
2024/01/12 03:54:26;;;;;;;13.52;5.10;;;4.40;99.90;;;;;;4968124;28;20280;-23
2024/01/12 03:56:52;;;;;;;11.93;4.72;;;4.40;99.90;;;;;;4992618;28;20026;-21
2024/01/12 03:59:18;;;;;;;10.65;4.18;;;4.40;99.90;;;;;;4991722;28;20022;-21
2024/01/12 04:01:45;;;;;;;11.93;4.67;;;4.50;99.90;;;;;;4990048;28;20311;-21
2024/01/12 04:04:12;;;;;;;10.90;4.22;;;4.50;99.90;;;;;;4994990;28;20069;-23
2024/01/12 04:06:38;;;;;;;11.80;4.53;;;4.50;99.90;;;;;;4994665;28;20315;-23
2024/01/12 04:09:04;;;;;;;10.23;4.20;;;4.50;99.90;;;;;;4993717;28;20058;-22
2024/01/12 04:11:30;;;;;;;11.37;4.90;;;4.60;99.90;;;;;;4996570;28;20069;-24
2024/01/12 04:13:56;;;;;;;9.68;4.10;;;4.60;99.90;;;;;;4998759;28;20368;-20
2024/01/12 04:16:21;;;;;;;8.43;3.83;;;4.60;99.90;;;;;;4987674;28;20044;-22
2024/01/12 04:18:47;;;;;;;12.10;4.25;;;4.70;99.90;;;;;;4996682;28;20046;-22
2024/01/12 04:21:13;;;;;;;9.50;4.13;;;4.60;99.90;;;;;;4997527;28;20050;-22
2024/01/12 04:23:39;;;;;;;9.75;3.90;;;4.70;99.90;;;;;;4992724;28;20349;-21
2024/01/12 04:26:08;;;;;;;9.75;3.70;;;4.70;99.90;;;;;;4996686;28;20065;-22
2024/01/12 04:28:34;;;;;;;8.82;3.90;;;4.70;99.90;;;;;;4997006;28;20049;-22
2024/01/12 04:31:03;;;;;;;10.63;4.07;;;4.70;99.90;;;;;;4991580;28;20038;-23
2024/01/12 04:33:30;;;;;;;12.23;4.25;;;4.70;99.90;;;;;;4995905;28;20515;-20
2024/01/12 04:35:57;;;;;;;10.32;3.85;;;4.70;99.90;;;;;;4995772;28;20026;-20
2024/01/12 04:38:23;;;;;;;9.00;3.53;;;4.70;99.90;;;;;;4995159;28;20042;-27
2024/01/12 04:40:50;;;;;;;8.80;3.40;;;4.70;99.90;;;;;;4997816;28;20495;-19
2024/01/12 04:43:16;;;;;;;10.13;4.22;;;4.70;99.90;;;;;;4995219;28;20254;-21
2024/01/12 04:45:41;;;;;;;11.45;4.20;;;4.70;99.90;;;;;;4975258;28;20050;-19
2024/01/12 04:48:07;;;;;;;8.47;3.50;;;4.70;99.90;;;;;;4996353;28;20029;-20
2024/01/12 04:50:33;;;;;;;8.57;3.83;;;4.80;99.90;;;;;;4994498;28;20036;-19
2024/01/12 04:52:59;;;;;;;9.80;4.10;;;4.80;99.90;;;;;;4989717;28;20346;-19
2024/01/12 04:55:24;;;;;;;8.57;3.13;;;4.70;99.90;;;;;;4962985;28;20039;-19
2024/01/12 04:57:50;;;;;;;7.60;3.20;;;4.80;99.90;;;;;;4991840;28;20081;-19
2024/01/12 05:00:17;;;;;;;9.17;3.60;;;4.80;99.90;;;;;;4992941;28;20496;-19
2024/01/12 05:02:43;;;;;;;8.70;3.22;;;4.70;99.90;;;;;;4995064;28;20088;-20
2024/01/12 05:05:09;;;;;;;8.50;3.33;;;4.70;99.90;;;;;;4997678;28;20034;-20
2024/01/12 05:07:35;;;;;;;9.20;3.17;;;4.70;99.90;;;;;;4991535;28;20039;-21
2024/01/12 05:10:01;;;;;;;8.07;3.33;;;4.80;99.90;;;;;;4992144;28;20058;-20
2024/01/12 05:12:27;;;;;;;8.88;3.25;;;4.80;99.90;;;;;;4995534;28;20228;-21
2024/01/12 05:14:52;;;;;;;7.60;3.45;;;4.80;99.90;;;;;;4989489;28;20261;-21
2024/01/12 05:17:18;;;;;;;8.03;2.87;;;4.70;99.90;;;;;;4986872;28;20042;-20
2024/01/12 05:19:44;;;;;;;9.15;3.33;;;4.80;99.90;;;;;;4994542;28;20065;-20
2024/01/12 05:22:11;;;;;;;6.55;2.85;;;4.80;99.90;;;;;;4971241;28;20055;-20
2024/01/12 05:24:37;;;;;;;7.57;3.07;;;4.80;99.90;;;;;;4976936;28;20049;-20
2024/01/12 05:27:03;;;;;;;7.68;2.75;;;4.70;99.90;;;;;;4991169;28;20281;-20
2024/01/12 05:29:28;;;;;;;9.25;3.90;;;4.80;99.90;;;;;;4993939;28;20514;-22
2024/01/12 05:31:54;;;;;;;6.03;2.97;;;4.80;99.90;;;;;;4990369;28;20038;-21
2024/01/12 05:34:20;;;;;;;8.57;2.90;;;4.80;99.90;;;;;;4993453;28;20195;-19
2024/01/12 05:36:46;;;;;;;8.67;2.80;;;4.80;99.90;;;;;;4985697;28;20349;-19
2024/01/12 05:39:11;;;;;;;6.50;2.65;;;4.80;99.90;;;;;;4992613;28;20105;-19
2024/01/12 05:41:38;;;;;;;8.07;3.20;;;4.80;99.90;;;;;;4977023;28;20370;-19
2024/01/12 05:44:03;;;;;;;7.25;2.55;;;4.80;99.90;;;;;;4988763;28;20042;-19
2024/01/12 05:46:29;;;;;;;8.55;2.78;;;4.90;99.90;;;;;;4975964;28;20119;-19
2024/01/12 05:48:55;;;;;;;9.20;2.40;;;4.80;99.90;;;;;;4990566;28;20388;-19
2024/01/12 05:51:21;;;;;;;7.88;3.08;;;4.80;99.90;;;;;;4990133;28;20262;-20
2024/01/12 05:53:46;;;;;;;7.20;2.93;;;4.80;99.90;;;;;;4991468;28;20445;-19
2024/01/12 05:56:12;;;;;;;8.52;3.35;;;4.90;99.90;;;;;;4993389;28;20072;-19
2024/01/12 05:58:39;;;;;;;7.87;2.70;;;4.80;99.90;;;;;;4976481;28;20385;-19
2024/01/12 06:01:05;;;;;;;6.82;2.70;;;4.80;99.90;;;;;;4989546;28;20255;-20
2024/01/12 06:03:30;;;;;;;7.40;2.63;;;4.90;99.90;;;;;;4987952;28;20368;-23
2024/01/12 06:05:56;;;;;;;6.17;2.70;;;4.90;99.90;;;;;;4990536;28;20361;-23
2024/01/12 06:08:23;;;;;;;5.60;2.72;;;4.90;99.90;;;;;;4996033;28;20128;-22
2024/01/12 06:10:49;;;;;;;6.57;2.70;;;4.90;99.90;;;;;;4993874;28;20041;-23
2024/01/12 06:13:15;;;;;;;5.18;2.58;;;4.90;99.90;;;;;;4971248;28;20072;-22
2024/01/12 06:15:41;;;;;;;6.87;2.57;;;4.90;99.90;;;;;;4991055;28;20342;-23
2024/01/12 06:18:06;;;;;;;6.43;2.83;;;4.90;99.90;;;;;;4976124;28;20293;-23
2024/01/12 06:20:32;;;;;;;7.10;3.10;;;4.90;99.90;;;;;;4991914;28;20263;-21
2024/01/12 06:22:58;;;;;;;7.00;2.43;;;4.90;99.90;;;;;;4991440;28;20030;-22
2024/01/12 06:25:24;;;;;;;7.53;2.78;;;4.90;99.90;;;;;;4991092;28;20350;-23
2024/01/12 06:27:50;;;;;;;6.18;2.75;;;4.90;99.90;;;;;;4974557;28;20056;-26
2024/01/12 06:30:16;;;;;;;8.27;2.87;;;4.90;99.90;;;;;;4993231;28;20045;-22
2024/01/12 06:32:42;;;;;;;7.30;2.83;;;4.90;99.90;;;;;;4990985;28;20042;-23
2024/01/12 06:35:08;;;;;;;7.95;3.17;;;4.90;99.90;;;;;;4987688;28;20367;-22
2024/01/12 06:37:34;;;;;;;7.63;3.53;;;4.90;99.90;;;;;;4992539;28;20034;-22
2024/01/12 06:40:00;;;;;;;6.83;2.60;;;4.90;99.90;;;;;;4991263;28;20365;-21
2024/01/12 06:42:27;;;;;;;8.63;3.25;;;4.90;99.90;;;;;;4973936;28;20030;-23
2024/01/12 06:44:53;;;;;;;7.43;2.78;;;4.90;99.90;;;;;;4993162;28;20044;-24
2024/01/12 06:47:19;;;;;;;7.47;3.60;;;4.90;99.90;;;;;;4996847;28;20058;-23
2024/01/12 06:49:45;;;;;;;10.48;3.60;;;4.90;99.90;;;;;;4975247;28;20505;-22
2024/01/12 06:52:12;;;;;;;7.33;3.10;;;4.90;99.90;;;;;;4994039;28;20041;-23
2024/01/12 06:54:40;;;;;;;8.82;3.28;;;4.90;99.90;;;;;;4991375;28;20328;-21
2024/01/12 06:57:06;;;;;;;10.20;3.53;;;4.90;99.90;;;;;;4990690;28;20114;-22
2024/01/12 06:59:32;;;;;;;8.43;3.63;;;4.90;99.90;;;;;;4991314;28;20038;-21
2024/01/12 07:01:57;;;;;;;8.70;3.10;;;4.90;99.90;;;;;;4990735;28;20027;-23
2024/01/12 07:04:23;;;;;;;7.57;3.27;;;4.90;99.90;;;;;;4991194;28;20564;-24
2024/01/12 07:06:49;;;;;;;14.18;4.65;;;4.90;99.90;;;;;;4987004;28;20042;-21
2024/01/12 07:09:17;;;;;;;8.57;3.70;;;4.90;99.90;;;;;;4987830;28;20042;-24
2024/01/12 07:11:43;;;;;;;8.10;3.47;;;4.90;99.90;;;;;;4973534;28;20053;-22
2024/01/12 07:14:10;;;;;;;8.63;3.40;;;4.90;99.90;;;;;;4990521;28;20321;-23
2024/01/12 07:16:37;;;;;;;12.80;3.93;;;4.90;99.90;;;;;;4976049;28;20030;-22
2024/01/12 07:19:03;;;;;;;8.70;3.65;;;4.90;99.90;;;;;;4991863;28;20388;-22
2024/01/12 07:21:29;;;;;;;8.30;3.40;;;4.90;99.90;;;;;;4993958;28;20062;-22
2024/01/12 07:23:55;;;;;;;12.00;3.70;;;4.90;99.90;;;;;;4991571;28;20061;-22
2024/01/12 07:26:20;;;;;;;12.43;4.30;;;4.90;99.90;;;;;;4990213;28;20686;-21
2024/01/12 07:28:46;;;;;;;8.57;3.75;;;4.90;99.90;;;;;;4989638;28;20118;-25
2024/01/12 07:31:12;;;;;;;9.57;3.47;;;5.70;99.90;;;;;;4991730;28;20105;-21
2024/01/12 07:33:41;;;;;;;8.73;3.72;;;4.90;99.90;;;;;;4995327;28;20344;-25
2024/01/12 07:36:07;;;;;;;9.65;3.45;;;4.90;99.90;;;;;;4976546;28;20081;-23
2024/01/12 07:38:33;;;;;;;10.57;3.97;;;4.90;99.90;;;;;;4996433;28;20066;-22
2024/01/12 07:40:59;;;;;;;10.60;3.90;;;4.90;99.90;;;;;;4977277;28;20034;-21
2024/01/12 07:43:27;;;;;;;10.93;3.47;;;4.90;99.90;;;;;;4998006;28;20042;-21
2024/01/12 07:45:53;;;;;;;10.97;3.83;;;4.90;99.90;;;;;;4996319;28;20069;-22
2024/01/12 07:48:19;;;;;;;7.90;3.38;;;4.90;99.90;;;;;;4995541;28;20034;-22
2024/01/12 07:50:44;;;;;;;11.88;4.00;;;4.90;99.90;;;;;;4997080;28;20037;-22
2024/01/12 07:53:10;;;;;;;8.10;3.07;;;4.90;99.90;;;;;;4993193;28;20254;-21
2024/01/12 07:55:36;;;;;;;7.05;2.75;;;4.90;99.90;;;;;;4992011;28;20047;-21
2024/01/12 07:58:02;;;;;;;11.67;3.93;;;4.90;99.90;;;;;;4992607;28;20106;-22
2024/01/12 08:00:28;;;;;;;10.55;4.10;;;4.90;99.90;;;;;;4993719;28;20371;-23
2024/01/12 08:02:53;;;;;;;8.57;3.30;;;4.90;99.90;;;;;;4995696;28;20037;-22
2024/01/12 08:05:20;;;;;;;9.77;3.40;;;4.90;99.90;;;;;;4992828;28;20097;-21
2024/01/12 08:07:46;;;;;;;12.60;4.07;;;4.90;99.90;;;;;;4978571;28;20327;-22
2024/01/12 08:10:12;;;;;;;9.77;3.78;;;8.00;99.90;;;;;;4993181;28;20030;-23
2024/01/12 08:12:38;;;;;;;9.37;3.40;;;4.90;99.90;;;;;;4998968;28;20140;-22
2024/01/12 08:15:04;;;;;;;8.33;3.67;;;4.90;99.90;;;;;;4994794;28;20058;-22
2024/01/12 08:17:29;;;;;;;8.40;3.75;;;4.90;99.90;;;;;;4997268;28;20038;-21
2024/01/12 08:19:55;;;;;;;10.00;3.63;;;5.00;99.90;;;;;;4996906;28;20431;-23
2024/01/12 08:22:21;;;;;;;10.50;3.77;;;4.90;99.90;;;;;;4992712;28;20038;-22
2024/01/12 08:24:47;;;;;;;8.30;3.92;;;5.00;99.90;;;;;;4975852;28;20322;-21
2024/01/12 08:27:13;;;;;;;9.60;3.67;;;5.00;99.90;;;;;;4994947;28;20049;-25
2024/01/12 08:29:39;;;;;;;9.30;3.28;;;5.10;99.90;;;;;;4994132;28;20094;-24
2024/01/12 08:32:05;;;;;;;12.23;4.13;;;5.10;99.90;;;;;;4981804;28;20025;-25
2024/01/12 08:34:30;;;;;;;10.82;3.72;;;5.00;99.90;;;;;;4995361;28;20121;-21
2024/01/12 08:36:58;;;;;;;9.93;4.20;;;5.10;99.90;;;;;;4990757;28;20038;-22
2024/01/12 08:39:23;;;;;;;9.40;4.20;;;5.10;99.90;;;;;;4996727;28;20057;-23
2024/01/12 08:41:49;;;;;;;11.32;3.95;;;5.10;99.90;;;;;;4994015;28;20062;-22
2024/01/12 08:44:15;;;;;;;8.77;3.77;;;5.10;99.90;;;;;;4977581;28;20042;-19
2024/01/12 08:46:41;;;;;;;10.20;4.20;;;5.20;99.90;;;;;;4994541;28;20097;-19
2024/01/12 08:49:06;;;;;;;10.73;3.97;;;5.20;99.90;;;;;;4997394;28;20366;-20
2024/01/12 08:51:32;;;;;;;10.05;4.25;;;5.20;99.90;;;;;;4994474;28;20101;-21
2024/01/12 08:53:58;;;;;;;11.97;4.10;;;5.20;99.90;;;;;;4994788;28;20038;-20
2024/01/12 08:56:23;;;;;;;10.55;4.05;;;5.20;99.90;;;;;;4991393;28;20077;-20
2024/01/12 08:58:49;;;;;;;11.37;4.00;;;5.30;99.90;;;;;;4991888;28;20034;-21
2024/01/12 09:01:15;;;;;;;10.90;4.45;;;5.30;99.90;;;;;;4973568;28;20072;-19
2024/01/12 09:03:40;;;;;;;10.30;4.23;;;5.30;99.90;;;;;;4997119;28;20041;-20
2024/01/12 09:06:06;;;;;;;10.05;4.32;;;5.30;99.90;;;;;;4974464;28;20046;-20
2024/01/12 09:08:32;;;;;;;12.00;3.83;;;5.30;99.90;;;;;;4981466;28;20128;-20
2024/01/12 09:10:58;;;;;;;11.07;4.28;;;5.40;99.90;;;;;;4992753;28;20093;-20
2024/01/12 09:13:23;;;;;;;10.38;3.97;;;5.30;99.90;;;;;;4976441;28;20089;-20
2024/01/12 09:15:49;;;;;;;11.33;4.60;;;5.30;99.90;;;;;;4993936;28;20080;-20
2024/01/12 09:18:15;;;;;;;10.23;4.65;;;5.30;99.90;;;;;;4994324;28;20057;-19
2024/01/12 09:20:41;;;;;;;11.90;4.73;;;5.40;99.90;;;;;;4992863;28;20038;-19
2024/01/12 09:23:06;;;;;;;10.73;4.03;;;5.40;99.90;;;;;;4994251;28;20054;-19
2024/01/12 09:25:32;;;;;;;8.13;3.63;;;5.40;99.90;;;;;;4995883;28;20018;-20
2024/01/12 09:27:58;;;;;;;11.48;4.07;;;5.40;99.90;;;;;;4974302;28;20070;-19
2024/01/12 09:30:24;;;;;;;9.02;3.75;;;5.40;99.90;;;;;;4994802;28;20042;-19
2024/01/12 09:32:50;;;;;;;11.27;3.63;;;5.40;99.90;;;;;;4990660;28;20267;-21
2024/01/12 09:35:16;;;;;;;11.07;3.95;;;5.50;99.90;;;;;;4990493;28;20034;-20
2024/01/12 09:37:41;;;;;;;8.97;3.67;;;5.50;99.90;;;;;;4979480;28;20057;-20
2024/01/12 09:40:08;;;;;;;8.45;3.47;;;5.50;99.90;;;;;;4980710;28;20037;-21
2024/01/12 09:42:34;;;;;;;9.27;3.60;;;5.50;99.90;;;;;;4975903;28;20276;-19
2024/01/12 09:45:00;;;;;;;8.17;3.63;;;5.50;99.90;;;;;;4991299;28;20046;-21
2024/01/12 09:47:29;;;;;;;9.50;3.35;;;5.50;99.90;;;;;;4974474;28;20056;-19
2024/01/12 09:49:56;;;;;;;7.70;3.58;;;5.50;99.90;;;;;;4994379;28;20052;-19
2024/01/12 09:52:21;;;;;;;8.13;3.75;;;6.20;99.90;;;;;;4992290;28;20168;-20
2024/01/12 09:54:47;;;;;;;10.37;3.87;;;5.60;99.90;;;;;;4993989;28;20034;-19
2024/01/12 09:57:13;;;;;;;10.32;3.75;;;5.60;99.90;;;;;;4962449;28;20066;-20
2024/01/12 09:59:40;;;;;;;7.72;3.63;;;5.60;99.90;;;;;;4977283;28;20097;-20
2024/01/12 10:02:11;;;;;;;8.32;3.50;;;5.60;99.90;;;;;;4976748;28;20453;-19
2024/01/12 10:04:36;;;;;;;12.33;3.97;;;5.60;99.90;;;;;;4992183;28;20048;-20
2024/01/12 10:07:02;;;;;;;9.57;3.65;;;5.60;99.90;;;;;;4995057;28;20058;-19
2024/01/12 10:09:28;;;;;;;8.68;3.53;;;5.60;99.90;;;;;;4992695;28;20112;-19
2024/01/12 10:11:55;;;;;;;7.43;3.13;;;5.70;99.90;;;;;;4993657;28;20038;-20
2024/01/12 10:14:22;;;;;;;8.65;3.65;;;3.70;99.90;;;;;;4990710;28;20658;-20
2024/01/12 10:16:55;;;;;;;10.93;3.45;;;5.70;99.90;;;;;;4982251;28;20049;-21
2024/01/12 10:19:21;;;;;;;8.43;3.30;;;5.70;99.90;;;;;;4977577;28;20038;-20
2024/01/12 10:21:47;;;;;;;9.35;3.45;;;5.70;99.90;;;;;;4990078;28;20042;-20
2024/01/12 10:24:19;;;;;;;7.78;3.60;;;5.70;99.90;;;;;;4991461;28;20055;-20
2024/01/12 10:26:50;;;;;;;9.77;4.00;;;5.80;99.90;;;;;;4974323;28;20050;-20
2024/01/12 10:29:17;;;;;;;8.55;3.50;;;5.80;99.90;;;;;;4985733;28;20334;-20
2024/01/12 10:31:44;;;;;;;11.63;3.87;;;5.80;99.90;;;;;;4994130;28;20045;-19
2024/01/12 10:34:12;;;;;;;11.77;4.03;;;7.10;99.90;;;;;;4990251;28;20314;-21
2024/01/12 10:36:41;;;;;;;7.82;3.53;;;5.80;99.90;;;;;;4993878;28;20208;-20
2024/01/12 10:39:09;;;;;;;8.00;3.45;;;5.90;99.90;;;;;;4992378;28;20058;-19
2024/01/12 10:41:36;;;;;;;10.65;3.83;;;5.90;99.90;;;;;;4994703;28;20254;-20
2024/01/12 10:44:06;;;;;;;9.67;3.77;;;5.90;99.90;;;;;;4994419;28;20088;-19
2024/01/12 10:46:31;;;;;;;11.18;3.60;;;5.90;99.90;;;;;;4980194;28;20102;-19
2024/01/12 10:49:15;;;;;;;9.75;3.63;;;6.00;99.90;;;;;;4991247;28;20030;-21
2024/01/12 10:52:12;;;;;;;9.33;3.40;;;5.90;99.90;;;;;;4990059;28;20083;-19
2024/01/12 10:54:56;;;;;;;10.00;3.65;;;5.90;99.90;;;;;;4969371;28;20026;-19
2024/01/12 10:57:24;;;;;;;8.30;3.45;;;5.90;99.90;;;;;;4973486;28;20038;-20
2024/01/12 10:59:49;;;;;;;9.55;3.65;;;5.90;99.90;;;;;;4993100;28;20030;-19
2024/01/12 11:02:15;;;;;;;10.23;4.20;;;5.90;99.90;;;;;;4973948;28;20208;-19
2024/01/12 11:04:42;;;;;;;9.60;4.40;;;6.00;99.90;;;;;;4992714;28;20084;-22
2024/01/12 11:07:09;;;;;;;9.68;3.78;;;6.00;99.90;;;;;;4999773;28;20038;-22
2024/01/12 11:09:35;;;;;;;11.02;4.20;;;6.00;99.90;;;;;;4994813;28;20049;-23
2024/01/12 11:12:27;;;;;;;11.80;3.90;;;6.00;99.90;;;;;;4995005;28;20033;-21
2024/01/12 11:14:53;;;;;;;8.73;3.83;;;6.00;99.90;;;;;;4991769;28;20052;-19
2024/01/12 11:17:18;;;;;;;8.80;4.03;;;6.10;99.90;;;;;;4993504;28;20030;-21
2024/01/12 11:19:44;;;;;;;9.07;4.25;;;6.10;99.90;;;;;;4979518;28;20137;-19
2024/01/12 11:22:11;;;;;;;9.80;4.25;;;6.10;99.90;;;;;;4996211;28;20065;-19
2024/01/12 11:24:40;;;;;;;10.30;4.27;;;6.20;99.90;;;;;;4993658;28;20061;-22
2024/01/12 11:27:06;;;;;;;12.68;4.82;;;6.20;99.90;;;;;;4996726;28;20089;-22
2024/01/12 11:29:35;;;;;;;10.30;4.57;;;6.20;99.90;;;;;;4996473;28;20050;-22
2024/01/12 11:32:03;;;;;;;9.73;4.25;;;6.30;99.90;;;;;;4995559;28;20045;-23
2024/01/12 11:34:36;;;;;;;9.90;4.27;;;6.30;99.90;;;;;;4978783;28;20252;-23
2024/01/12 11:37:02;;;;;;;10.05;4.78;;;6.30;99.90;;;;;;4992999;28;20177;-22
2024/01/12 11:39:37;;;;;;;11.75;4.47;;;6.30;99.90;;;;;;4993561;28;20311;-22
2024/01/12 11:42:05;;;;;;;8.45;3.90;;;6.40;99.90;;;;;;4989101;28;20350;-22
2024/01/12 11:44:32;;;;;;;12.32;4.40;;;6.30;99.90;;;;;;4995277;28;20293;-23
2024/01/12 11:46:59;;;;;;;10.27;4.63;;;6.30;99.90;;;;;;4993947;28;20034;-22
2024/01/12 11:49:25;;;;;;;13.43;4.60;;;6.40;99.90;;;;;;4996072;28;20038;-22
2024/01/12 11:52:06;;;;;;;10.82;4.57;;;6.30;99.90;;;;;;4975788;28;20042;-22
2024/01/12 11:54:32;;;;;;;8.25;3.70;;;6.40;99.90;;;;;;4994105;28;20053;-23
2024/01/12 11:56:58;;;;;;;11.27;4.50;;;6.30;99.90;;;;;;4994363;28;20265;-24
2024/01/12 11:59:24;;;;;;;10.37;4.23;;;6.40;99.90;;;;;;4994422;28;20288;-22
2024/01/12 12:01:49;;;;;;;10.40;4.18;;;6.40;99.90;;;;;;4991506;28;20034;-23
2024/01/12 12:04:18;;;;;;;9.03;4.10;;;6.40;99.90;;;;;;4971938;28;20030;-23
2024/01/12 12:06:48;;;;;;;9.55;3.97;;;6.50;99.90;;;;;;4993030;28;20577;-21
2024/01/12 12:09:14;;;;;;;7.38;3.95;;;6.50;99.90;;;;;;4995185;28;20076;-24
2024/01/12 12:11:40;;;;;;;10.52;4.38;;;6.50;99.90;;;;;;4996232;28;20227;-21
2024/01/12 12:14:05;;;;;;;11.98;4.70;;;6.60;99.90;;;;;;4996778;28;20453;-23
2024/01/12 12:16:32;;;;;;;8.47;3.83;;;6.60;99.90;;;;;;4989725;28;20100;-22
2024/01/12 12:18:58;;;;;;;9.63;4.00;;;6.60;99.90;;;;;;4995937;28;20045;-22
2024/01/12 12:21:24;;;;;;;9.57;4.07;;;6.60;99.90;;;;;;4995034;28;20077;-22
2024/01/12 12:23:50;;;;;;;10.52;4.90;;;6.70;99.90;;;;;;4982538;28;20060;-20
2024/01/12 12:26:17;;;;;;;12.02;4.03;;;6.00;99.90;;;;;;4995221;28;20129;-19
2024/01/12 12:28:44;;;;;;;7.68;3.70;;;6.70;99.90;;;;;;4994830;28;20295;-20
2024/01/12 12:31:10;;;;;;;9.50;3.93;;;6.70;99.90;;;;;;4991909;28;20046;-20
2024/01/12 12:33:36;;;;;;;12.43;4.53;;;6.80;99.90;;;;;;4989954;28;20301;-20
2024/01/12 12:36:07;;;;;;;9.52;4.28;;;6.80;99.90;;;;;;4965839;28;20053;-19
2024/01/12 12:38:33;;;;;;;9.30;4.43;;;6.80;99.90;;;;;;4994291;28;20038;-19
2024/01/12 12:40:59;;;;;;;10.43;4.43;;;6.80;99.90;;;;;;4994310;28;20544;-20
2024/01/12 12:43:25;;;;;;;10.02;4.05;;;6.90;99.90;;;;;;4976614;28;20054;-19
2024/01/12 12:45:57;;;;;;;10.23;4.00;;;6.90;99.90;;;;;;4973572;28;20401;-19